Tiempo atmosférico en la estación meteorológica de Munera, Albacete (918 m.)



Fecha
DESCASC
Temp. máxima en grados centígrados (hora)
DESCASC
Temp. mínima en grados centígrados (hora)
DESCASC
Temp. media en grados centígrados
DESCASC
Racha de viento máxima en m/sg (hora)
DESCASC
Velocidad máxima media en intervalos de 10 minutos(hora)
DESCASC
Precipitaciones diarias en mm
DESCASC
Precipitaciones de 00:00 a 06:00 en mm
DESCASC
Precipitaciones de 06:00 a 12:00 en mm
DESCASC
Precipitaciones de 12:00 a 18:00 en mm
DESCASC
Precipitaciones de 18:00 a 24:00 en mm
DESCASC
18-08-2019 36.3 (16:20) 19.1 (00:00) 27.7 8.33 (09:10) 3.33 (09:20) 0 0 0 0 0
17-08-2019 36.8 (15:40) 18.2 (00:00) 27.5 7.5 (15:10) 3.61 (13:50) 0 0 0 0 0
04-08-2019 36.6 (17:10) 18.5 (00:00) 27.5 6.94 (14:20) 3.33 (17:30) 0 0 0 0 0
03-08-2019 36.8 (17:20) 16.4 (00:00) 26.6 6.94 (17:40) 3.06 (17:20) 0 0 0 0 0
26-07-2019 32.1 (16:30) 20.6 (00:00) 26.3 11.39 (16:50) 4.17 (16:50) 0 0 0 0 0
06-08-2019 37.2 (17:00) 15.3 (00:00) 26.3 8.61 (17:10) 3.89 (16:20) 0 0 0 0 0
05-08-2019 37.5 (17:50) 14.7 (00:00) 26.1 8.06 (16:00) 2.78 (18:40) 0 0 0 0 0
09-08-2019 34.8 (17:40) 17.4 (00:00) 26.1 9.17 (17:10) 4.17 (18:20) 0 0 0 0 0
16-08-2019 36.4 (17:30) 14.4 (00:00) 25.4 8.61 (09:40) 3.89 (09:30) 0 0 0 0 0
01-08-2019 34.9 (17:50) 14.6 (00:00) 24.8 -- (--) -- (--) -- 0 -- 0 0
19-08-2019 35.9 (16:30) 13.5 (00:00) 24.7 8.61 (17:10) 3.33 (16:50) 0 0 0 0 0
10-08-2019 35 (17:20) 14.3 (00:00) 24.7 8.06 (14:50) 3.61 (17:40) 0 0 0 0 0
07-08-2019 32.8 (14:50) 16.2 (00:00) 24.5 9.17 (18:50) 4.17 (12:00) 0 0 0 0 0
08-08-2019 35.8 (17:50) 13.3 (00:00) 24.5 9.44 (17:30) 3.33 (17:40) 0 0 0 0 0
31-07-2019 30.7 (17:50) 18.1 (00:00) 24.4 10.83 (20:50) 3.89 (09:10) 0 0 0 0 0
29-07-2019 32.8 (17:40) 14.6 (00:00) 23.7 9.17 (16:20) 3.61 (20:00) 0 0 0 0 0
15-08-2019 34.8 (16:40) 12.6 (00:00) 23.7 6.67 (19:40) 3.33 (19:40) 0 0 0 0 0
02-08-2019 34.9 (16:20) 12.3 (00:00) 23.6 7.22 (17:30) 2.78 (14:50) 0 0 0 0 0
20-08-2019 31.4 (16:20) 15.6 (00:00) 23.5 10.28 (20:30) 4.72 (19:40) 0 0 0 0 0
11-08-2019 31.8 (17:20) 13.5 (00:00) 22.6 8.89 (18:20) 3.89 (15:10) 0 0 0 0 0
24-08-2019 30.7 (16:50) 11.6 (00:00) 21.2 6.11 (15:30) 2.5 (15:40) 0 0 0 0 0
30-07-2019 31.9 (18:20) 10.5 (00:00) 21.2 6.94 (16:00) 3.89 (17:20) 0 0 0 0 0
14-08-2019 32.2 (17:20) 9.5 (00:00) 20.9 7.5 (17:40) 3.33 (19:20) 0 0 0 0 0
13-08-2019 30 (16:10) 11.4 (00:00) 20.7 7.22 (14:10) 3.33 (17:50) 0 0 0 0 0
28-07-2019 28.7 (17:20) 11.7 (00:00) 20.2 6.67 (18:30) 3.33 (18:00) 0 0 0 0 0
21-08-2019 23.6 (14:00) 16.8 (00:00) 20.2 -- (--) -- (--) -- 0 0 2.4 --
23-08-2019 29.3 (15:00) 11.2 (00:00) 20.2 8.89 (11:00) 3.33 (15:30) 0 0 0 0 0
12-08-2019 28 (17:20) 12.2 (00:00) 20.1 8.61 (14:00) 3.33 (17:40) 0 0 0 0 0
22-08-2019 29.1 (18:00) 10.9 (00:00) 20 6.39 (15:50) 2.78 (12:10) 0 0 0 0 0
27-07-2019 -- (--) -- (--) -- -- (--) -- (--) -- -- 0 -- --

Gráficas

Temp. máximas Temp. mínimas Temp. medias Precipitaciones Rachas de viento máximas Velocidades máximas media en intervalos de 10 minutos

Datos horarios

Fecha y hora oficial Temperatura (ºC) Velocidad del viento (km/h) Dirección del viento Racha (km/h) Dirección de racha Precipitación (mm) Presión (hPa) Tendencia (hPa) Humedad (%)
2019-08-24 23:00:00 17.3 3 Sur 7 Sur 0 -- -- 52
2019-08-24 22:00:00 19.7 4 Sur 6 Sur 0 -- -- 43
2019-08-24 21:00:00 24.9 0 Calma 10 Este 0 -- -- 30
2019-08-24 20:00:00 28 5 Nordeste 18 Este 0 -- -- 27
2019-08-24 19:00:00 30 6 Este 17 Nordeste 0 -- -- 25
2019-08-24 18:00:00 30.2 8 Nordeste 20 Este 0 -- -- 23
2019-08-24 17:00:00 30.7 8 Este 22 Norte 0 -- -- 22
2019-08-24 16:00:00 30.4 8 Este 22 Este 0 -- -- 23
2019-08-24 15:00:00 30.1 6 Nordeste 19 Nordeste 0 -- -- 26
2019-08-24 14:00:00 28.8 8 Este 19 Este 0 -- -- 29
2019-08-24 13:00:00 28.3 5 Sudeste 19 Este 0 -- -- 32
2019-08-24 12:00:00 26.2 6 Este 18 Nordeste 0 -- -- 36
2019-08-24 11:00:00 23.6 6 Este 17 Este 0 -- -- 43
2019-08-24 10:00:00 21.5 6 Este 14 Este 0 -- -- 51
2019-08-24 09:00:00 14.8 0 Calma 8 Sudeste 0 -- -- 73
2019-08-24 08:00:00 12 3 Este 8 Sudeste 0 -- -- 74
2019-08-24 07:00:00 12.2 0 Calma 4 Sudeste 0 -- -- 71
2019-08-24 06:00:00 13.6 0 Calma 8 Sudeste 0 -- -- 69
2019-08-24 05:00:00 14 0 Calma 4 Sudeste 0 -- -- 71
2019-08-24 04:00:00 16.2 0 Calma 9 Este 0 -- -- 66
2019-08-24 03:00:00 16.6 2 Este 10 Sudeste 0 -- -- 65
2019-08-24 02:00:00 16.3 0 Calma 6 Sudeste 0 -- -- 65
2019-08-24 01:00:00 17.6 3 Sudeste 14 Sur 0 -- -- 61
2019-08-24 00:00:00 16.1 4 Sur 9 Sur 0 -- -- 60
2019-08-23 23:00:00 17 3 Sur 7 Sur 0 -- -- 54
2019-08-23 22:00:00 20.4 0 Calma 7 Sur 0 -- -- 44
2019-08-23 21:00:00 24.7 2 Sudeste 13 Este 0 -- -- 36
2019-08-23 20:00:00 26.6 7 Este 19 Nordeste 0 -- -- 32
2019-08-23 19:00:00 28.4 9 Este 24 Este 0 -- -- 28
2019-08-23 18:00:00 28.8 9 Nordeste 27 Nordeste 0 -- -- 27
2019-08-23 17:00:00 29.2 9 Nordeste 24 Nordeste 0 -- -- 24
2019-08-23 16:00:00 29 9 Nordeste 24 Este 0 -- -- 25
2019-08-23 15:00:00 29.3 7 Sudeste 24 Este 0 -- -- 26
2019-08-23 14:00:00 28.3 6 Sudeste 23 Sudeste 0 -- -- 29
2019-08-23 13:00:00 27.2 9 Sudeste 26 Sudeste 0 -- -- 29
2019-08-23 12:00:00 25.3 9 Sudeste 24 Sudeste 0 -- -- 42
2019-08-23 11:00:00 23.5 11 Sudeste 32 Sudeste 0 -- -- 39
2019-08-23 10:00:00 20.5 5 Sudeste 23 Sudeste 0 -- -- 56
2019-08-23 09:00:00 14.9 4 Sudeste 12 Sudeste 0 -- -- 74
2019-08-23 08:00:00 11.2 0 Calma 4 Sudeste 0 -- -- 84
2019-08-23 07:00:00 12.5 2 Sudeste 9 Sudeste 0 -- -- 82
2019-08-23 06:00:00 11.8 0 Calma 6 Este 0 -- -- 84
2019-08-23 05:00:00 12.6 0 Calma 4 Sur 0 -- -- 79
2019-08-23 04:00:00 14.2 0 Calma 6 Sur 0 -- -- 77
2019-08-23 03:00:00 16.6 2 Sur 12 Sudeste 0 -- -- 70
2019-08-23 02:00:00 17.5 4 Sudeste 13 Sudeste 0 -- -- 76
2019-08-23 01:00:00 18.2 3 Sudeste 12 Sur 0 -- -- 76
2019-08-23 00:00:00 19.3 6 Sur 15 Sudeste 0 -- -- 73
2019-08-22 23:00:00 19.8 4 Sur 13 Sur 0 -- -- 68
2019-08-22 22:00:00 20 2 Sur 4 Sur 0 -- -- 53
2019-08-22 21:00:00 23.9 0 Calma 12 Sudeste 0 -- -- 40
2019-08-22 20:00:00 26.6 5 Este 22 Este 0 -- -- 35
2019-08-22 19:00:00 28.4 7 Este 21 Este 0 -- -- 31
2019-08-22 18:00:00 29.1 6 Este 18 Sudeste 0 -- -- 32
2019-08-22 17:00:00 28.6 6 Este 19 Este 0 -- -- 30
2019-08-22 16:00:00 28.1 9 Este 23 Nordeste 0 -- -- 33
2019-08-22 15:00:00 27.1 8 Este 19 Nordeste 0 -- -- 36
2019-08-22 14:00:00 26.3 6 Sudeste 20 Este 0 -- -- 42
2019-08-22 13:00:00 24.5 7 Sudeste 21 Este 0 -- -- 55
2019-08-22 12:00:00 22.9 9 Este 20 Este 0 -- -- 64
2019-08-22 11:00:00 21.2 6 Este 15 Este 0 -- -- 75
2019-08-22 10:00:00 18.1 4 Este 10 Este 0 -- -- 94
2019-08-22 09:00:00 14.2 2 Sur 6 Este 0 -- -- 100
2019-08-22 08:00:00 10.9 0 Calma 4 Sur 0 -- -- 98
2019-08-22 07:00:00 11.5 3 Sur 5 Sur 0 -- -- 97
2019-08-22 06:00:00 12.2 0 Calma 5 Nordeste 0 -- -- 97
2019-08-22 05:00:00 13.1 3 Sur 5 Sudoeste 0 -- -- 96
2019-08-22 04:00:00 13.7 2 Sur 5 Sur 0 -- -- 96
2019-08-22 03:00:00 14.6 0 Calma 5 Sur 0 -- -- 95
2019-08-22 02:00:00 15.4 0 Calma 9 Sudoeste 0 -- -- 95
2019-08-22 01:00:00 16.1 3 Sudeste 18 Este 0 -- -- 94
2019-08-22 00:00:00 16.8 8 Este 24 Este 0 -- -- 95
2019-08-21 23:00:00 -- 6 Este 17 Este 0 -- -- --
2019-08-21 22:00:00 17.4 -- -- -- -- -- -- -- --
2019-08-21 21:00:00 18 9 Este 24 Este 0 -- -- 94
2019-08-21 20:00:00 19.3 6 Este 17 Sudeste 0 -- -- 91
2019-08-21 19:00:00 19.7 5 Sudeste 19 Sudeste 0 -- -- 94
2019-08-21 18:00:00 18.6 5 Sudeste 17 Sudeste 1.4 -- -- 94
2019-08-21 17:00:00 19 5 Sudeste 21 Sudeste 1 -- -- 92
2019-08-21 16:00:00 19.7 7 Este -- -- 0 -- -- 87
2019-08-21 15:00:00 21.9 8 Sudeste 30 Nordeste 0 -- -- 74
2019-08-21 14:00:00 23.6 7 Sudeste 26 Sudeste 0 -- -- 69
2019-08-21 13:00:00 21 9 Sudeste 27 Este 0 -- -- 77
2019-08-21 12:00:00 20.5 7 Sudeste 23 Este 0 -- -- 78
2019-08-21 11:00:00 20.5 7 Sudeste 23 Sudeste 0 -- -- 77
2019-08-21 10:00:00 19.9 8 Sudeste 25 Sudeste 0 -- -- 78
2019-08-21 09:00:00 18.7 6 Sudeste 18 Este 0 -- -- 87
2019-08-21 08:00:00 18.4 6 Sudeste 21 Sudeste 0 -- -- 88
2019-08-21 07:00:00 18.6 6 Sudeste 19 Sudeste 0 -- -- 88
2019-08-21 06:00:00 18.9 5 Este 22 Sudeste 0 -- -- 89
2019-08-21 05:00:00 19 6 Sudeste 26 Sudeste 0 -- -- 88
2019-08-21 04:00:00 19 10 Sudeste 28 Sudeste 0 -- -- 88
2019-08-21 03:00:00 19.1 9 Sudeste 30 Sudeste 0 -- -- 88
2019-08-21 02:00:00 18.8 10 Sudeste 33 Sudeste 0 -- -- 88
2019-08-21 01:00:00 18.6 8 Sudeste 30 Sur 0 -- -- 87
2019-08-21 00:00:00 18.6 9 Sudeste 29 Este 0 -- -- 85
2019-08-20 23:00:00 18.7 9 Sudeste 34 Este 0 -- -- 84
2019-08-20 22:00:00 19.3 9 Sudeste 34 Este 0 -- -- 81
2019-08-20 21:00:00 20.5 12 Este 37 Sudeste 0 -- -- 75
2019-08-20 20:00:00 23.1 11 Sudeste 33 Este 0 -- -- 67
2019-08-20 19:00:00 27.2 13 Este 30 Este 0 -- -- 56
2019-08-20 18:00:00 29.6 5 Este 14 Sudeste 0 -- -- 32
2019-08-20 17:00:00 30 4 Este 14 Oeste 0 -- -- 32
2019-08-20 16:00:00 30.6 5 Sudeste 21 Este 0 -- -- 28
2019-08-20 15:00:00 28.9 3 Norte 12 Norte 0 -- -- 29
2019-08-20 14:00:00 27.9 5 Nordeste 14 Norte 0 -- -- 31
2019-08-20 13:00:00 28.4 4 Sudeste 11 Nordeste 0 -- -- 30
2019-08-20 12:00:00 26.1 3 Nordeste 12 Norte 0 -- -- 35
2019-08-20 11:00:00 25.1 5 Norte 13 Oeste 0 -- -- 38
2019-08-20 10:00:00 25 4 Sudoeste 15 Sudoeste 0 -- -- 37
2019-08-20 09:00:00 19.8 6 Sur 12 Sur 0 -- -- 55
2019-08-20 08:00:00 16 5 Sudoeste 10 Sur 0 -- -- 62
2019-08-20 07:00:00 15.9 5 Sudoeste 14 Sur 0 -- -- 59
2019-08-20 06:00:00 16 5 Sur 9 Sur 0 -- -- 56
2019-08-20 05:00:00 17 5 Sur 10 Sur 0 -- -- 49
2019-08-20 04:00:00 18 5 Sur 10 Sur 0 -- -- 43
2019-08-20 03:00:00 19 6 Sur 17 Sudoeste 0 -- -- 38
2019-08-20 02:00:00 18.8 7 Sur 12 Sur 0 -- -- 34
2019-08-20 01:00:00 20.2 4 Sudoeste 17 Oeste 0 -- -- 32
2019-08-20 00:00:00 18.4 5 Sur 10 Sur 0 -- -- 36
2019-08-19 23:00:00 18.9 6 Sur 10 Sur 0 -- -- 32
2019-08-19 22:00:00 21.5 5 Sur 9 Sur 0 -- -- 27
2019-08-19 21:00:00 27.7 3 Sudoeste 18 Sudoeste 0 -- -- 19
2019-08-19 20:00:00 31.5 7 Sudoeste 21 Oeste 0 -- -- 16
2019-08-19 19:00:00 34.5 7 Sudoeste 26 Oeste 0 -- -- 15
2019-08-19 18:00:00 35.4 12 Sudoeste 31 Oeste 0 -- -- 15
2019-08-19 17:00:00 35.8 11 Sudoeste 28 Oeste 0 -- -- 14
2019-08-19 16:00:00 35.6 8 Sudoeste 30 Sur 0 -- -- 19
2019-08-19 15:00:00 34.2 8 Sur 24 Sudoeste 0 -- -- 19
2019-08-19 14:00:00 33.1 7 Sudoeste 19 Sudoeste 0 -- -- 23
2019-08-19 13:00:00 31.4 6 Sudoeste 17 Oeste 0 -- -- 27
2019-08-19 12:00:00 29.9 8 Oeste 17 Sudoeste 0 -- -- 30
2019-08-19 11:00:00 27.8 5 Sudoeste 19 Sur 0 -- -- 38
2019-08-19 10:00:00 24.9 6 Sudoeste 16 Sudoeste 0 -- -- 41
2019-08-19 09:00:00 18.4 5 Sur 9 Sur 0 -- -- 62
2019-08-19 08:00:00 13.8 6 Sur 10 Sudoeste 0 -- -- 65
2019-08-19 07:00:00 14.2 4 Sur 8 Sudoeste 0 -- -- 56
2019-08-19 06:00:00 13.6 6 Sur 9 Sur 0 -- -- 50
2019-08-19 05:00:00 13.8 6 Sur 9 Sur 0 -- -- 47
2019-08-19 04:00:00 14.1 5 Sur 9 Sur 0 -- -- 46
2019-08-19 03:00:00 14.4 5 Sur 7 Sur 0 -- -- 46
2019-08-19 02:00:00 15.8 3 Sur 8 Norte 0 -- -- 41
2019-08-19 01:00:00 17.1 5 Sur 9 Sur 0 -- -- 43
2019-08-19 00:00:00 19.1 4 Sur 12 Sudoeste 0 -- -- 42
2019-08-18 23:00:00 22.6 3 Sur 14 Oeste 0 -- -- 36
2019-08-18 22:00:00 26.9 4 Oeste 18 Oeste 0 -- -- 27
2019-08-18 21:00:00 30 9 Noroeste 20 Noroeste 0 -- -- 23
2019-08-18 20:00:00 32.9 4 Noroeste 26 Oeste 0 -- -- 19
2019-08-18 19:00:00 35 8 Oeste 21 Oeste 0 -- -- 18
2019-08-18 18:00:00 35.9 9 Sudoeste 26 Noroeste 0 -- -- 17
2019-08-18 17:00:00 36.1 9 Oeste 26 Sudoeste 0 -- -- 17
2019-08-18 16:00:00 35.8 7 Noroeste 24 Oeste 0 -- -- 18
2019-08-18 15:00:00 35.6 11 Oeste 23 Oeste 0 -- -- 18
2019-08-18 14:00:00 35.2 9 Sudoeste 30 Sudoeste 0 -- -- 19
2019-08-18 13:00:00 33.8 7 Noroeste 19 Noroeste 0 -- -- 21
2019-08-18 12:00:00 32.7 8 Oeste 23 Sudoeste 0 -- -- 21
2019-08-18 11:00:00 30.7 9 Sudoeste 24 Sudoeste 0 -- -- 26
2019-08-18 10:00:00 27.1 11 Sudoeste 30 Sudoeste 0 -- -- 35
2019-08-18 09:00:00 23.4 11 Sudoeste 28 Sudoeste 0 -- -- 42
2019-08-18 08:00:00 21 10 Sur 22 Sudoeste 0 -- -- 46
2019-08-18 07:00:00 20.9 10 Sur 22 Sur 0 -- -- 45
2019-08-18 06:00:00 21.2 8 Sur 20 Sur 0 -- -- 43
2019-08-18 05:00:00 21.1 9 Sur 19 Sur 0 -- -- 42
2019-08-18 04:00:00 20.3 7 Sur 14 Sudoeste 0 -- -- 43
2019-08-18 03:00:00 20.3 7 Sur 10 Sur 0 -- -- 44
2019-08-18 02:00:00 20.5 5 Sur 11 Sur 0 -- -- 44
2019-08-18 01:00:00 22 5 Sur 11 Sur 0 -- -- 43
2019-08-18 00:00:00 22.7 5 Sur 11 Sudoeste 0 -- -- 44
2019-08-17 23:00:00 24.4 4 Sudoeste 12 Sur 0 -- -- 41
2019-08-17 22:00:00 25 4 Sudoeste 11 Sur 0 -- -- 32
2019-08-17 21:00:00 30.1 3 Sudoeste 15 Sudoeste 0 -- -- 24
2019-08-17 20:00:00 33.8 4 Oeste 19 Sudoeste 0 -- -- 21
2019-08-17 19:00:00 36 5 Oeste 22 Oeste 0 -- -- 17
2019-08-17 18:00:00 36.6 7 Sudoeste 25 Sudoeste 0 -- -- 17
2019-08-17 17:00:00 36.7 9 Sudoeste 22 Oeste 0 -- -- 17
2019-08-17 16:00:00 36.7 8 Oeste 27 Sudoeste 0 -- -- 20
2019-08-17 15:00:00 36.5 7 Oeste 25 Sudoeste 0 -- -- 21
2019-08-17 14:00:00 35.6 5 Sudoeste 26 Sur 0 -- -- 21
2019-08-17 13:00:00 34.5 7 Oeste 19 Sudoeste 0 -- -- 23
2019-08-17 12:00:00 33.2 6 Oeste 19 Oeste 0 -- -- 25
2019-08-17 11:00:00 30.6 9 Sudoeste 20 Oeste 0 -- -- 31
2019-08-17 10:00:00 27 9 Sudoeste 23 Sudoeste 0 -- -- 38
2019-08-17 09:00:00 22.7 8 Sur 18 Sudoeste 0 -- -- 48
2019-08-17 08:00:00 20.5 6 Sur 18 Sudoeste 0 -- -- 52
2019-08-17 07:00:00 21.1 8 Sudoeste 19 Sur 0 -- -- 49
2019-08-17 06:00:00 21.1 9 Sudoeste 21 Sudoeste 0 -- -- 47
2019-08-17 05:00:00 20.2 7 Sur 14 Sur 0 -- -- 47
2019-08-17 04:00:00 19.5 6 Sur 14 Sur 0 -- -- 46
2019-08-17 03:00:00 18.7 5 Sur 9 Sur 0 -- -- 48
2019-08-17 02:00:00 20 5 Sur 8 Sur 0 -- -- 47
2019-08-17 01:00:00 21.8 5 Sur 10 Sur 0 -- -- 42
2019-08-17 00:00:00 22.5 5 Sur 11 Sur 0 -- -- 45
2019-08-16 23:00:00 22.7 5 Sudoeste 9 Sudoeste 0 -- -- 45
2019-08-16 22:00:00 25.9 3 Sur 6 Noroeste 0 -- -- 39
2019-08-16 21:00:00 30.6 4 Norte 12 Noroeste 0 -- -- 27
2019-08-16 20:00:00 33.2 6 Oeste 16 Noroeste 0 -- -- 23
2019-08-16 19:00:00 35.1 6 Noroeste 21 Sudoeste 0 -- -- 21
2019-08-16 18:00:00 35 9 Sudoeste 21 Sudoeste 0 -- -- 21
2019-08-16 17:00:00 34.8 6 Sudoeste 25 Oeste 0 -- -- 23
2019-08-16 16:00:00 34.6 6 Noroeste 27 Sudoeste 0 -- -- 22
2019-08-16 15:00:00 35.2 7 Sudoeste 24 Oeste 0 -- -- 22
2019-08-16 14:00:00 34.9 6 Oeste 25 Oeste 0 -- -- 22
2019-08-16 13:00:00 33.6 8 Oeste 23 Sudoeste 0 -- -- 25
2019-08-16 12:00:00 32.2 8 Oeste 27 Sudoeste 0 -- -- 29
2019-08-16 11:00:00 29.8 10 Sudoeste 30 Sur 0 -- -- 34
2019-08-16 10:00:00 26.4 12 Sudoeste 31 Sur 0 -- -- 40
2019-08-16 09:00:00 22.8 10 Sudoeste 24 Sur 0 -- -- 50
2019-08-16 08:00:00 20.5 8 Sur 24 Sur 0 -- -- 54
2019-08-16 07:00:00 20.5 4 Sudeste 25 Sur 0 -- -- 51
2019-08-16 06:00:00 20.3 9 Sur 27 Sudoeste 0 -- -- 50
2019-08-16 05:00:00 15.8 7 Sur 14 Sudoeste 0 -- -- 63
2019-08-16 04:00:00 15.7 0 Calma 5 Sur 0 -- -- 62
2019-08-16 03:00:00 18.1 0 Calma 9 Nordeste 0 -- -- 63
2019-08-16 02:00:00 18.8 2 Sur 12 Sur 0 -- -- 56
2019-08-16 01:00:00 17.9 5 Sur 10 Sur 0 -- -- 57
2019-08-16 00:00:00 18 4 Sur 9 Sur 0 -- -- 51
2019-08-15 23:00:00 19.3 5 Sur 9 Sur 0 -- -- 39
2019-08-15 22:00:00 22.9 4 Sur 6 Sur 0 -- -- 33
2019-08-15 21:00:00 28.5 0 Calma 16 Norte 0 -- -- 25
2019-08-15 20:00:00 31.4 9 Noroeste 24 Norte 0 -- -- 20
2019-08-15 19:00:00 33.9 7 Noroeste 20 Noroeste 0 -- -- 17
2019-08-15 18:00:00 33.9 7 Noroeste 23 Noroeste 0 -- -- 17
2019-08-15 17:00:00 34.2 6 Noroeste 24 Noroeste 0 -- -- 18
2019-08-15 16:00:00 34.1 6 Norte 20 Noroeste 0 -- -- 19
2019-08-15 15:00:00 33.9 10 Noroeste 23 Sudoeste 0 -- -- 19
2019-08-15 14:00:00 33.8 9 Sudoeste 21 Oeste 0 -- -- 18
2019-08-15 13:00:00 32.5 7 Oeste 15 Sudoeste 0 -- -- 21
2019-08-15 12:00:00 31.2 6 Oeste 21 Oeste 0 -- -- 24
2019-08-15 11:00:00 28.8 9 Sudoeste 20 Sudoeste 0 -- -- 30
2019-08-15 10:00:00 24.8 8 Sudoeste 19 Sudoeste 0 -- -- 40
2019-08-15 09:00:00 15.7 4 Sur 6 Sur 0 -- -- 75
2019-08-15 08:00:00 12.7 3 Sur 5 Sur 0 -- -- 76
2019-08-15 07:00:00 13.5 0 Calma 10 Sudoeste 0 -- -- 73
2019-08-15 06:00:00 14.2 6 Sur 12 Sudoeste 0 -- -- 71
2019-08-15 05:00:00 13.8 6 Sur 11 Sur 0 -- -- 72
2019-08-15 04:00:00 14.2 5 Sur 9 Sur 0 -- -- 68
2019-08-15 03:00:00 14.6 5 Sur 8 Sur 0 -- -- 65
2019-08-15 02:00:00 14.3 5 Sur 10 Sur 0 -- -- 52
2019-08-15 01:00:00 14.8 5 Sur 11 Sudoeste 0 -- -- 49
2019-08-15 00:00:00 15.8 6 Sur 11 Sur 0 -- -- 46
2019-08-14 23:00:00 17.7 5 Sur 10 Sur 0 -- -- 41
2019-08-14 22:00:00 21.6 4 Sur 6 Sur 0 -- -- 34
2019-08-14 21:00:00 27 3 Norte 13 Noroeste 0 -- -- 26
2019-08-14 20:00:00 29.5 9 Norte 22 Norte 0 -- -- 21
2019-08-14 19:00:00 31.4 9 Noroeste 21 Oeste 0 -- -- 20
2019-08-14 18:00:00 31.8 9 Noroeste 27 Oeste 0 -- -- 20
2019-08-14 17:00:00 32 7 Oeste 26 Norte 0 -- -- 22
2019-08-14 16:00:00 31.6 8 Noroeste 23 Noroeste 0 -- -- 25
2019-08-14 15:00:00 30.9 9 Norte 23 Noroeste 0 -- -- 26
2019-08-14 14:00:00 29.8 6 Nordeste 19 Noroeste 0 -- -- 27
2019-08-14 13:00:00 30.1 4 Sur 15 Sudoeste 0 -- -- 26
2019-08-14 12:00:00 28.6 5 Oeste 15 Sudoeste 0 -- -- 30
2019-08-14 11:00:00 26.7 6 Sudoeste 23 Sudoeste 0 -- -- 36
2019-08-14 10:00:00 23.2 8 Sudoeste 22 Sudoeste 0 -- -- 50
2019-08-14 09:00:00 16.1 5 Sudoeste 11 Sudoeste 0 -- -- 86
2019-08-14 08:00:00 10 5 Sur 8 Sur 0 -- -- 87
2019-08-14 07:00:00 9.7 3 Sur 7 Sur 0 -- -- 82
2019-08-14 06:00:00 10.8 3 Sur 5 Sur 0 -- -- 77
2019-08-14 05:00:00 12.2 3 Sur 8 Sur 0 -- -- 75
2019-08-14 04:00:00 12.9 5 Sur 9 Sur 0 -- -- 74
2019-08-14 03:00:00 13.2 6 Sur 9 Sur 0 -- -- 73
2019-08-14 02:00:00 12.6 5 Sur 10 Sur 0 -- -- 61
2019-08-14 01:00:00 13.2 6 Sur 10 Sur 0 -- -- 55
2019-08-14 00:00:00 14.6 4 Sur 11 Sur 0 -- -- 51
2019-08-13 23:00:00 16.8 4 Sur 8 Sur 0 -- -- 46
2019-08-13 22:00:00 20.5 0 Calma 6 Norte 0 -- -- 37
2019-08-13 21:00:00 24.6 5 Norte 18 Noroeste 0 -- -- 30
2019-08-13 20:00:00 26.6 8 Norte 22 Noroeste 0 -- -- 26
2019-08-13 19:00:00 28.3 10 Noroeste 23 Noroeste 0 -- -- 25
2019-08-13 18:00:00 28.9 10 Norte 23 Oeste 0 -- -- 24
2019-08-13 17:00:00 29.5 10 Noroeste 25 Oeste 0 -- -- 24
2019-08-13 16:00:00 29.8 9 Oeste 21 Oeste 0 -- -- 24
2019-08-13 15:00:00 29.4 8 Noroeste 26 Norte 0 -- -- 29
2019-08-13 14:00:00 27.7 10 Noroeste 23 Noroeste 0 -- -- 34
2019-08-13 13:00:00 26.7 3 Sur 17 Noroeste 0 -- -- 41
2019-08-13 12:00:00 25.3 4 Sudeste 16 Este 0 -- -- 51
2019-08-13 11:00:00 24 6 Sudeste 16 Este 0 -- -- 60
2019-08-13 10:00:00 21.5 5 Sudeste 18 Sudeste 0 -- -- 69
2019-08-13 09:00:00 18.6 9 Sudeste 24 Sudeste 0 -- -- 78
2019-08-13 08:00:00 17.1 5 Sudeste 16 Sudeste 0 -- -- 83
2019-08-13 07:00:00 17.3 4 Sudeste 18 Sudeste 0 -- -- 82
2019-08-13 06:00:00 18.1 5 Sudeste 22 Sudeste 0 -- -- 84
2019-08-13 05:00:00 18.3 4 Este 16 Sudeste 0 -- -- 87
2019-08-13 04:00:00 18.1 4 Sudeste 18 Este 0 -- -- 86
2019-08-13 03:00:00 17.8 5 Sudeste 17 Sudeste 0 -- -- 82
2019-08-13 02:00:00 16.4 5 Este 15 Nordeste 0 -- -- 88
2019-08-13 01:00:00 11.8 4 Sur 6 Sur 0 -- -- 48
2019-08-13 00:00:00 13 4 Sur 6 Sur 0 -- -- 44
2019-08-12 23:00:00 14.9 2 Sur 5 Sudoeste 0 -- -- 40
2019-08-12 22:00:00 18.4 0 Calma 5 Norte 0 -- -- 33
2019-08-12 21:00:00 23.2 4 Norte 18 Norte 0 -- -- 23
2019-08-12 20:00:00 25.3 9 Norte 23 Norte 0 -- -- 21
2019-08-12 19:00:00 26.9 12 Norte 23 Norte 0 -- -- 18
2019-08-12 18:00:00 27.6 11 Norte 22 Norte 0 -- -- 19
2019-08-12 17:00:00 27.7 5 Norte 28 Oeste 0 -- -- 19
2019-08-12 16:00:00 27.2 6 Norte 22 Norte 0 -- -- 21
2019-08-12 15:00:00 27.3 5 Oeste 18 Oeste 0 -- -- 22
2019-08-12 14:00:00 25.8 6 Nordeste 31 Sudoeste 0 -- -- 27
2019-08-12 13:00:00 24.5 6 Norte 20 Norte 0 -- -- 28
2019-08-12 12:00:00 22.6 10 Noroeste 18 Norte 0 -- -- 33
2019-08-12 11:00:00 20.1 8 Norte 14 Noroeste 0 -- -- 42
2019-08-12 10:00:00 17.6 6 Noroeste 12 Oeste 0 -- -- 43
2019-08-12 09:00:00 15.1 3 Oeste 12 Oeste 0 -- -- 46
2019-08-12 08:00:00 14.2 3 Oeste 15 Oeste 0 -- -- 44
2019-08-12 07:00:00 12.5 3 Oeste 13 Oeste 0 -- -- 50
2019-08-12 06:00:00 12.7 4 Sur 10 Noroeste 0 -- -- 50
2019-08-12 05:00:00 15.5 5 Oeste 12 Oeste 0 -- -- 40
2019-08-12 04:00:00 15.8 5 Oeste 15 Oeste 0 -- -- 39
2019-08-12 03:00:00 17.2 2 Sudoeste 15 Sudoeste 0 -- -- 37
2019-08-12 02:00:00 18.4 4 Oeste 13 Noroeste 0 -- -- 34
2019-08-12 01:00:00 19.9 4 Oeste 14 Oeste 0 -- -- 29
2019-08-12 00:00:00 21.1 6 Oeste 17 Oeste 0 -- -- 24
2019-08-11 23:00:00 21.7 4 Sudoeste 16 Oeste 0 -- -- 24
2019-08-11 22:00:00 23.3 5 Noroeste 22 Noroeste 0 -- -- 23
2019-08-11 21:00:00 25.4 5 Oeste 20 Noroeste 0 -- -- 23
2019-08-11 20:00:00 27.3 13 Noroeste 28 Noroeste 0 -- -- 21
2019-08-11 19:00:00 28.6 9 Oeste 32 Noroeste 0 -- -- 19
2019-08-11 18:00:00 31.1 9 Oeste 32 Oeste 0 -- -- 20
2019-08-11 17:00:00 31.2 13 Oeste 29 Sudoeste 0 -- -- 21
2019-08-11 16:00:00 31.2 11 Oeste 29 Sudoeste 0 -- -- 22
2019-08-11 15:00:00 29.9 10 Oeste 27 Oeste 0 -- -- 24
2019-08-11 14:00:00 29.5 10 Sudoeste 29 Sudoeste 0 -- -- 26
2019-08-11 13:00:00 27.7 8 Oeste 25 Oeste 0 -- -- 28
2019-08-11 12:00:00 24.8 8 Sudoeste 22 Oeste 0 -- -- 33
2019-08-11 11:00:00 24.1 8 Oeste 23 Sudoeste 0 -- -- 34
2019-08-11 10:00:00 24.3 8 Sudoeste 20 Sudoeste 0 -- -- 33
2019-08-11 09:00:00 20.2 8 Sudoeste 20 Sudoeste 0 -- -- 44
2019-08-11 08:00:00 17 6 Sudoeste 18 Oeste 0 -- -- 59
2019-08-11 07:00:00 16.4 5 Sudoeste 14 Sudoeste 0 -- -- 68
2019-08-11 06:00:00 13.9 4 Sudoeste 10 Sudoeste 0 -- -- 71
2019-08-11 05:00:00 14 0 Calma 6 Sur 0 -- -- 62
2019-08-11 04:00:00 15.2 4 Sur 8 Sur 0 -- -- 58
2019-08-11 03:00:00 16.5 3 Sur 6 Sur 0 -- -- 55
2019-08-11 02:00:00 17.9 2 Sur 8 Sudoeste 0 -- -- 48
2019-08-11 01:00:00 19 5 Sur 9 Sur 0 -- -- 45
2019-08-11 00:00:00 19.1 5 Sur 8 Sur 0 -- -- 44
2019-08-10 23:00:00 20.7 2 Sudoeste 6 Sur 0 -- -- 42
2019-08-10 22:00:00 24.7 4 Sur 10 Sudoeste 0 -- -- 36
2019-08-10 21:00:00 29.4 6 Sudoeste 22 Sudoeste 0 -- -- 25
2019-08-10 20:00:00 32.1 8 Sudoeste 22 Sudoeste 0 -- -- 25
2019-08-10 19:00:00 34.4 10 Sudoeste 26 Sudoeste 0 -- -- 20
2019-08-10 18:00:00 34.7 9 Sur 25 Sudoeste 0 -- -- 26
2019-08-10 17:00:00 34.9 10 Sudoeste 24 Sudoeste 0 -- -- 27
2019-08-10 16:00:00 34.2 9 Oeste 24 Sudoeste 0 -- -- 28
2019-08-10 15:00:00 32.7 7 Sur 29 Sudoeste 0 -- -- 31
2019-08-10 14:00:00 31 8 Sudoeste 24 Oeste 0 -- -- 40
2019-08-10 13:00:00 29.4 5 Sur 22 Sudoeste 0 -- -- 44
2019-08-10 12:00:00 27.7 7 Oeste 16 Oeste 0 -- -- 51
2019-08-10 11:00:00 25.1 3 Sudoeste 13 Noroeste 0 -- -- 60
2019-08-10 10:00:00 22.6 5 Noroeste 9 Noroeste 0 -- -- 69
2019-08-10 09:00:00 19.6 3 Noroeste 9 Noroeste 0 -- -- 82
2019-08-10 08:00:00 14.5 3 Sur 5 Sur 0 -- -- 90
2019-08-10 07:00:00 14.6 2 Sur 5 Sur 0 -- -- 88
2019-08-10 06:00:00 15 2 Sur 6 Sur 0 -- -- 86
2019-08-10 05:00:00 15.8 3 Sur 6 Sur 0 -- -- 83
2019-08-10 04:00:00 17.2 3 Sur 6 Oeste 0 -- -- 80
2019-08-10 03:00:00 18.2 0 Calma 8 Noroeste 0 -- -- 74
2019-08-10 02:00:00 18.8 3 Noroeste 9 Noroeste 0 -- -- 68
2019-08-10 01:00:00 20.1 2 Sur 6 Sur 0 -- -- 61
2019-08-10 00:00:00 22.6 3 Sur 8 Oeste 0 -- -- 55
2019-08-09 23:00:00 24.5 4 Oeste 13 Noroeste 0 -- -- 47
2019-08-09 22:00:00 26.9 3 Oeste 22 Noroeste 0 -- -- 41
2019-08-09 21:00:00 29.2 9 Noroeste 24 Noroeste 0 -- -- 36
2019-08-09 20:00:00 31.2 9 Noroeste 27 Noroeste 0 -- -- 33
2019-08-09 19:00:00 33.9 8 Noroeste 32 Oeste 0 -- -- 27
2019-08-09 18:00:00 34.7 11 Sudoeste 33 Oeste 0 -- -- 25
2019-08-09 17:00:00 34.4 9 Oeste 30 Noroeste 0 -- -- 25
2019-08-09 16:00:00 34.4 12 Sudoeste 31 Oeste 0 -- -- 27
2019-08-09 15:00:00 33.2 8 Oeste 25 Oeste 0 -- -- 30
2019-08-09 14:00:00 32.3 9 Oeste 27 Sudoeste 0 -- -- 31
2019-08-09 13:00:00 30.5 11 Oeste 28 Noroeste 0 -- -- 33
2019-08-09 12:00:00 29 12 Oeste 24 Oeste 0 -- -- 38
2019-08-09 11:00:00 27.5 8 Oeste 23 Oeste 0 -- -- 43
2019-08-09 10:00:00 25.5 8 Sudoeste 19 Sudoeste 0 -- -- 46
2019-08-09 09:00:00 21.6 7 Sudoeste 22 Sudoeste 0 -- -- 52
2019-08-09 08:00:00 17.7 4 Sur 14 Sur 0 -- -- 56
2019-08-09 07:00:00 18.4 6 Sudoeste 15 Sur 0 -- -- 50
2019-08-09 06:00:00 19.1 8 Sudoeste 18 Sudoeste 0 -- -- 44
2019-08-09 05:00:00 18.1 7 Sudoeste 15 Sudoeste 0 -- -- 43
2019-08-09 04:00:00 18.5 5 Sur 13 Sudoeste 0 -- -- 41
2019-08-09 03:00:00 18.8 6 Sur 12 Sudoeste 0 -- -- 41
2019-08-09 02:00:00 18.6 6 Sur 11 Sudoeste 0 -- -- 41
2019-08-09 01:00:00 19.3 5 Sur 11 Sur 0 -- -- 37
2019-08-09 00:00:00 20.3 4 Sur 10 Sur 0 -- -- 35
2019-08-08 23:00:00 21.2 5 Sur 12 Sudoeste 0 -- -- 33
2019-08-08 22:00:00 25.5 0 Calma 12 Sudoeste 0 -- -- 32
2019-08-08 21:00:00 30.1 7 Sudoeste 19 Sudoeste 0 -- -- 24
2019-08-08 20:00:00 33.2 7 Sudoeste 27 Sudoeste 0 -- -- 22
2019-08-08 19:00:00 35.1 7 Oeste 23 Sudoeste 0 -- -- 20
2019-08-08 18:00:00 35.5 7 Oeste 34 Oeste 0 -- -- 20
2019-08-08 17:00:00 35.4 12 Oeste 28 Oeste 0 -- -- 21
2019-08-08 16:00:00 34.3 10 Sudoeste 22 Sudoeste 0 -- -- 27
2019-08-08 15:00:00 33.1 8 Sur 21 Sudoeste 0 -- -- 28
2019-08-08 14:00:00 32 7 Sudoeste 21 Oeste 0 -- -- 29
2019-08-08 13:00:00 30.7 8 Sudoeste 20 Oeste 0 -- -- 31
2019-08-08 12:00:00 27.7 5 Noroeste 14 Noroeste 0 -- -- 38
2019-08-08 11:00:00 25.6 4 Nordeste 9 Nordeste 0 -- -- 43
2019-08-08 10:00:00 23.3 2 Nordeste 5 Nordeste 0 -- -- 51
2019-08-08 09:00:00 17 3 Sur 6 Sur 0 -- -- 72
2019-08-08 08:00:00 13.6 4 Sur 8 Sur 0 -- -- 77
2019-08-08 07:00:00 13.7 3 Sur 8 Sur 0 -- -- 74
2019-08-08 06:00:00 14.7 4 Sur 6 Sur 0 -- -- 71
2019-08-08 05:00:00 15.5 4 Sur 6 Sur 0 -- -- 69
2019-08-08 04:00:00 16.1 2 Sur 8 Sur 0 -- -- 66
2019-08-08 03:00:00 16.8 4 Sur 6 Sudoeste 0 -- -- 63
2019-08-08 02:00:00 19.1 3 Sur 6 Noroeste 0 -- -- 56
2019-08-08 01:00:00 21.7 3 Noroeste 12 Noroeste 0 -- -- 49
2019-08-08 00:00:00 22.5 5 Noroeste 12 Noroeste 0 -- -- 45
2019-08-07 23:00:00 22.9 2 Noroeste 5 Noroeste 0 -- -- 43
2019-08-07 22:00:00 24.4 4 Norte 20 Noroeste 0 -- -- 38
2019-08-07 21:00:00 26.3 6 Noroeste 26 Noroeste 0 -- -- 35
2019-08-07 20:00:00 28.4 5 Noroeste 25 Oeste 0 -- -- 27
2019-08-07 19:00:00 30.4 7 Oeste 33 Oeste 0 -- -- 23
2019-08-07 18:00:00 30.8 9 Oeste 23 Sudoeste 0 -- -- 22
2019-08-07 17:00:00 30.4 9 Noroeste 24 Noroeste 0 -- -- 24
2019-08-07 16:00:00 30.8 9 Oeste 27 Oeste 0 -- -- 24
2019-08-07 15:00:00 32.6 9 Oeste 29 Oeste 0 -- -- 26
2019-08-07 14:00:00 31.5 10 Oeste 31 Sudoeste 0 -- -- 25
2019-08-07 13:00:00 31.4 12 Oeste 31 Oeste 0 -- -- 26
2019-08-07 12:00:00 30.3 15 Sudoeste 33 Sudoeste 0 -- -- 30
2019-08-07 11:00:00 25.8 9 Oeste 24 Oeste 0 -- -- 40
2019-08-07 10:00:00 21.7 6 Sudoeste 19 Sudoeste 0 -- -- 42
2019-08-07 09:00:00 20.1 10 Sudoeste 20 Sudoeste 0 -- -- 42
2019-08-07 08:00:00 17.9 8 Sudoeste 17 Sur 0 -- -- 42
2019-08-07 07:00:00 17.6 7 Sudoeste 16 Sudoeste 0 -- -- 39
2019-08-07 06:00:00 18.4 7 Sudoeste 18 Sudoeste 0 -- -- 33
2019-08-07 05:00:00 17.8 7 Sudoeste 18 Sudoeste 0 -- -- 30
2019-08-07 04:00:00 18 8 Sudoeste 17 Sur 0 -- -- 26
2019-08-07 03:00:00 17.1 6 Sur 12 Sur 0 -- -- 27
2019-08-07 02:00:00 16.4 5 Sur 11 Sur 0 -- -- 31
2019-08-07 01:00:00 16.6 7 Sur 13 Sur 0 -- -- 31
2019-08-07 00:00:00 18.7 7 Sur 13 Sur 0 -- -- 27
2019-08-06 23:00:00 20.8 5 Sudoeste 12 Oeste 0 -- -- 24
2019-08-06 22:00:00 24.2 4 Sur 10 Sudoeste 0 -- -- 22
2019-08-06 21:00:00 29.6 4 Sudoeste 25 Oeste 0 -- -- 15
2019-08-06 20:00:00 33.6 7 Sudoeste 26 Sur 0 -- -- 13
2019-08-06 19:00:00 35.7 10 Sudoeste 29 Oeste 0 -- -- 11
2019-08-06 18:00:00 35.2 11 Sudoeste 31 Oeste 0 -- -- 13
2019-08-06 17:00:00 37.2 10 Sudoeste 30 Oeste 0 -- -- 12
2019-08-06 16:00:00 36.7 10 Sudoeste 28 Sur 0 -- -- 14
2019-08-06 15:00:00 35.9 9 Sur 24 Sur 0 -- -- 16
2019-08-06 14:00:00 34.2 8 Oeste 28 Oeste 0 -- -- 17
2019-08-06 13:00:00 33.1 9 Oeste 19 Oeste 0 -- -- 19
2019-08-06 12:00:00 32 9 Oeste 20 Noroeste 0 -- -- 22
2019-08-06 11:00:00 29.9 9 Oeste 22 Sudoeste 0 -- -- 25
2019-08-06 10:00:00 26.3 8 Sudoeste 24 Sur 0 -- -- 33
2019-08-06 09:00:00 22 12 Sudoeste 23 Sur 0 -- -- 42
2019-08-06 08:00:00 16.4 7 Sur 13 Sur 0 -- -- 55
2019-08-06 07:00:00 16.4 7 Sur 12 Sur 0 -- -- 50
2019-08-06 06:00:00 16.2 7 Sur 10 Sur 0 -- -- 48
2019-08-06 05:00:00 15.3 5 Sur 9 Sudoeste 0 -- -- 50
2019-08-06 04:00:00 16 5 Sur 9 Sudoeste 0 -- -- 50
2019-08-06 03:00:00 17.1 5 Sur 11 Sur 0 -- -- 48
2019-08-06 02:00:00 17.2 7 Sur 12 Sudoeste 0 -- -- 46
2019-08-06 01:00:00 17.4 5 Sur 12 Sur 0 -- -- 47
2019-08-06 00:00:00 18.9 5 Sur 10 Sur 0 -- -- 44
2019-08-05 23:00:00 20.9 6 Sur 10 Sur 0 -- -- 41
2019-08-05 22:00:00 25 4 Sur 6 Sur 0 -- -- 33
2019-08-05 21:00:00 30.4 3 Norte 14 Norte 0 -- -- 25
2019-08-05 20:00:00 33.5 8 Norte 17 Norte 0 -- -- 19
2019-08-05 19:00:00 36.8 7 Oeste 20 Sudoeste 0 -- -- 17
2019-08-05 18:00:00 37.4 9 Sudoeste 22 Sudoeste 0 -- -- 15
2019-08-05 17:00:00 36.8 8 Sudoeste 21 Oeste 0 -- -- 16
2019-08-05 16:00:00 36.1 9 Sur 29 Sur 0 -- -- 18
2019-08-05 15:00:00 35.4 7 Sudoeste 19 Sur 0 -- -- 19
2019-08-05 14:00:00 34.6 6 Sur 22 Sudoeste 0 -- -- 21
2019-08-05 13:00:00 33.8 8 Oeste 22 Oeste 0 -- -- 21
2019-08-05 12:00:00 31.7 7 Noroeste 14 Noroeste 0 -- -- 23
2019-08-05 11:00:00 29.9 5 Noroeste 15 Oeste 0 -- -- 26
2019-08-05 10:00:00 27.1 5 Oeste 14 Sudoeste 0 -- -- 35
2019-08-05 09:00:00 21.4 6 Sudoeste 15 Sudoeste 0 -- -- 49
2019-08-05 08:00:00 16.1 5 Sur 9 Sur 0 -- -- 52
2019-08-05 07:00:00 15.5 5 Sur 9 Sudoeste 0 -- -- 54
2019-08-05 06:00:00 14.9 5 Sur 9 Sur 0 -- -- 58
2019-08-05 05:00:00 15.3 4 Sur 10 Sur 0 -- -- 58
2019-08-05 04:00:00 15.6 6 Sur 9 Sudoeste 0 -- -- 55
2019-08-05 03:00:00 16.4 5 Sur 9 Sudoeste 0 -- -- 53
2019-08-05 02:00:00 17.4 6 Sur 9 Sur 0 -- -- 51
2019-08-05 01:00:00 18.2 5 Sur 9 Sur 0 -- -- 51
2019-08-05 00:00:00 19.5 5 Sur 10 Sur 0 -- -- 48
2019-08-04 23:00:00 21.6 5 Sur 9 Sur 0 -- -- 43
2019-08-04 22:00:00 25.6 4 Sur 11 Norte 0 -- -- 36
2019-08-04 21:00:00 30.6 4 Norte 17 Oeste 0 -- -- 29
2019-08-04 20:00:00 34.3 4 Oeste 24 Oeste 0 -- -- 19
2019-08-04 19:00:00 35.3 5 Noroeste 21 Sur 0 -- -- 19
2019-08-04 18:00:00 36.4 7 Oeste 24 Sudoeste 0 -- -- 16
2019-08-04 17:00:00 36.4 10 Oeste 23 Noroeste 0 -- -- 17
2019-08-04 16:00:00 35.6 6 Sur 22 Sur 0 -- -- 19
2019-08-04 15:00:00 35 7 Sudoeste 25 Oeste 0 -- -- 23
2019-08-04 14:00:00 33.7 7 Oeste 17 Oeste 0 -- -- 22
2019-08-04 13:00:00 33.1 7 Sudoeste 18 Oeste 0 -- -- 22
2019-08-04 12:00:00 31.2 7 Sudoeste 15 Noroeste 0 -- -- 25
2019-08-04 11:00:00 28.8 8 Oeste 17 Sudoeste 0 -- -- 28
2019-08-04 10:00:00 25.9 9 Sudoeste 22 Sudoeste 0 -- -- 35
2019-08-04 09:00:00 22.1 9 Sur 20 Sudoeste 0 -- -- 44
2019-08-04 08:00:00 18.9 8 Sur 16 Sur 0 -- -- 50
2019-08-04 07:00:00 19.2 7 Sur 18 Sur 0 -- -- 46
2019-08-04 06:00:00 19.5 8 Sudoeste 16 Sudoeste 0 -- -- 44
2019-08-04 05:00:00 19.9 6 Sur 22 Sur 0 -- -- 43
2019-08-04 04:00:00 20.1 6 Sudoeste 15 Sudoeste 0 -- -- 44
2019-08-04 03:00:00 21 8 Sudoeste 17 Sudoeste 0 -- -- 41
2019-08-04 02:00:00 22.8 8 Sudoeste 18 Sur 0 -- -- 36
2019-08-04 01:00:00 21.8 8 Sur 15 Sudoeste 0 -- -- 38
2019-08-04 00:00:00 22.5 5 Sur 12 Sur 0 -- -- 56
2019-08-03 23:00:00 25.3 0 Calma 6 Sudeste 0 -- -- 50
2019-08-03 22:00:00 28 0 Calma 13 Sudeste 0 -- -- 43
2019-08-03 21:00:00 30.4 3 Este 16 Este 0 -- -- 37
2019-08-03 20:00:00 32.3 6 Este 22 Este 0 -- -- 33
2019-08-03 19:00:00 34.7 7 Sur 21 Norte 0 -- -- 28
2019-08-03 18:00:00 36 9 Oeste 25 Oeste 0 -- -- 17
2019-08-03 17:00:00 36.6 8 Oeste 20 Oeste 0 -- -- 17
2019-08-03 16:00:00 35.8 7 Sur 20 Sudoeste 0 -- -- 21
2019-08-03 15:00:00 34.4 5 Norte 24 Norte 0 -- -- 22
2019-08-03 14:00:00 33.4 5 Noroeste 19 Oeste 0 -- -- 19
2019-08-03 13:00:00 33.2 8 Sudoeste 19 Oeste 0 -- -- 19
2019-08-03 12:00:00 31.6 7 Sudoeste 22 Sudoeste 0 -- -- 22
2019-08-03 11:00:00 29.1 9 Sur 22 Sudoeste 0 -- -- 27
2019-08-03 10:00:00 26.6 9 Sudoeste 18 Sudoeste 0 -- -- 31
2019-08-03 09:00:00 22.2 4 Sur 13 Sur 0 -- -- 42
2019-08-03 08:00:00 17.3 0 Calma 4 Norte 0 -- -- 51
2019-08-03 07:00:00 19.2 3 Norte 18 Sur 0 -- -- 43
2019-08-03 06:00:00 19.7 9 Sur 20 Sudoeste 0 -- -- 40
2019-08-03 05:00:00 18 9 Sur 19 Sur 0 -- -- 44
2019-08-03 04:00:00 17.3 0 Calma 5 Sur 0 -- -- 54
2019-08-03 03:00:00 20 0 Calma 6 Este 0 -- -- 61
2019-08-03 02:00:00 21.5 4 Sudeste 12 Nordeste 0 -- -- 61
2019-08-03 01:00:00 21.1 3 Sur 8 Sur 0 -- -- 61
2019-08-03 00:00:00 21.2 3 Sudoeste 9 Sur 0 -- -- 58
2019-08-02 23:00:00 22.6 3 Sur 6 Sudoeste 0 -- -- 44
2019-08-02 22:00:00 25.4 2 Sur 5 Noroeste 0 -- -- 36
2019-08-02 21:00:00 30.2 0 Calma 11 Nordeste 0 -- -- 25
2019-08-02 20:00:00 32.9 3 Norte 12 Norte 0 -- -- 22
2019-08-02 19:00:00 33.8 4 Norte 15 Norte 0 -- -- 20
2019-08-02 18:00:00 34.3 7 Nordeste 26 Nordeste 0 -- -- 19
2019-08-02 17:00:00 34.5 6 Este 17 Noroeste 0 -- -- 20
2019-08-02 16:00:00 34.7 8 Norte 19 Noroeste 0 -- -- 18
2019-08-02 15:00:00 33.6 9 Noroeste 19 Norte 0 -- -- 21
2019-08-02 14:00:00 32.4 7 Nordeste 19 Oeste 0 -- -- 22
2019-08-02 13:00:00 31.3 6 Norte 17 Noroeste 0 -- -- 23
2019-08-02 12:00:00 30.1 5 Nordeste 13 Norte 0 -- -- 25
2019-08-02 11:00:00 28.9 4 Noroeste 10 Oeste 0 -- -- 27
2019-08-02 10:00:00 25.8 4 Oeste 10 Oeste 0 -- -- 33
2019-08-02 09:00:00 19.1 4 Sur 10 Sur 0 -- -- 67
2019-08-02 08:00:00 12.9 5 Sur 9 Sudoeste 0 -- -- 72
2019-08-02 07:00:00 12.4 6 Sur 10 Sur 0 -- -- 62
2019-08-02 06:00:00 12.5 6 Sur 9 Sudoeste 0 -- -- 61
2019-08-02 05:00:00 13.1 5 Sur 10 Sudoeste 0 -- -- 60
2019-08-02 04:00:00 13.8 5 Sur 9 Sur 0 -- -- 58
2019-08-02 03:00:00 15 4 Sur 10 Sur 0 -- -- 56
2019-08-02 02:00:00 16 5 Sur 10 Sudeste 0 -- -- 54
2019-08-02 01:00:00 17.1 5 Sur 9 Sur 0 -- -- 52
2019-08-02 00:00:00 18.6 5 Sur 9 Sur 0 -- -- 49
2019-08-01 23:00:00 21.1 4 Sur 8 Sur 0 -- -- 45
2019-08-01 22:00:00 25.5 2 Sur 13 Noroeste 0 -- -- 34
2019-08-01 21:00:00 29.5 6 Norte 17 Norte 0 -- -- 27
2019-08-01 20:00:00 31.9 7 Norte 22 Noroeste 0 -- -- 24
2019-08-01 19:00:00 33.9 6 Noroeste 19 Oeste 0 -- -- 23
2019-08-01 18:00:00 34.7 10 Oeste 25 Sudoeste 0 -- -- 23
2019-08-01 17:00:00 34.3 7 Oeste 23 Sudoeste 0 -- -- 25
2019-08-01 16:00:00 33.9 8 Oeste 22 Sudoeste 0 -- -- 27
2019-08-01 15:00:00 32.5 8 Noroeste 23 Oeste 0 -- -- 30
2019-08-01 14:00:00 31.9 9 Oeste 20 Noroeste 0 -- -- 31
2019-08-01 13:00:00 30.4 7 Oeste 21 Sudoeste 0 -- -- 33
2019-08-01 12:00:00 28.4 6 Sudoeste 23 Sudoeste 0 -- -- 44
2019-08-01 11:00:00 26.2 9 Sudoeste 25 Sudoeste 0 -- -- 52
2019-08-01 10:00:00 23.9 -- -- -- -- -- -- -- --
2019-08-01 09:00:00 20.9 9 Sur 20 Sur 0 -- -- 68
2019-08-01 08:00:00 15.1 4 Sur 9 Sur 0 -- -- 89
2019-08-01 07:00:00 15.2 0 Calma 9 Sur 0 -- -- 85
2019-08-01 06:00:00 16.5 3 Sur 18 Sur 0 -- -- 83
2019-08-01 05:00:00 17 4 Sudeste 19 Sudeste 0 -- -- 82
2019-08-01 04:00:00 17.4 6 Sudeste 21 Este 0 -- -- 81
2019-08-01 03:00:00 18.1 6 Sudeste 23 Este 0 -- -- 78
2019-08-01 02:00:00 19 6 Sudeste 22 Sudeste 0 -- -- 74
2019-08-01 01:00:00 20.2 7 Sudeste 24 Sur 0 -- -- 56
2019-08-01 00:00:00 21.3 10 Sudeste 28 Sudeste 0 -- -- 58
2019-07-31 23:00:00 -- 7 Sudeste 30 Sudeste 0 -- -- --
2019-07-31 22:00:00 23.9 10 Sudeste 35 Sudeste 0 -- -- 56
2019-07-31 21:00:00 25.7 12 Sudeste 39 Sudeste 0 -- -- 50
2019-07-31 20:00:00 27.8 11 Sudeste 33 Sudeste 0 -- -- 40
2019-07-31 19:00:00 30.4 12 Sudeste 33 Sur 0 -- -- 37
2019-07-31 18:00:00 30.6 11 Sudeste 28 Sudeste 0 -- -- 40
2019-07-31 17:00:00 30 9 Sudeste 30 Sudeste 0 -- -- 42
2019-07-31 16:00:00 29.4 12 Este 29 Sudeste 0 -- -- 42
2019-07-31 15:00:00 30.1 8 Sudeste 35 Este 0 -- -- 39
2019-07-31 14:00:00 28.7 10 Sudeste 29 Sudeste 0 -- -- 38
2019-07-31 13:00:00 26.9 12 Sudeste 33 Sudeste 0 -- -- 46
2019-07-31 12:00:00 25.2 11 Sudeste 31 Sudeste 0 -- -- 49
2019-07-31 11:00:00 23.6 10 Sudeste 35 Sudeste 0 -- -- 56
2019-07-31 10:00:00 21.5 12 Sudeste 36 Sudeste 0 -- -- 62
2019-07-31 09:00:00 19.2 13 Sudeste 35 Sudeste 0 -- -- 79
2019-07-31 08:00:00 18.1 6 Sudeste 27 Este 0 -- -- 86
2019-07-31 07:00:00 18.4 11 Sudeste 29 Este 0 -- -- 84
2019-07-31 06:00:00 18.9 5 Sudeste 19 Sur 0 -- -- 82
2019-07-31 05:00:00 19.3 5 Sudeste 25 Sudeste 0 -- -- 85
2019-07-31 04:00:00 19.6 8 Sudeste 30 Sudeste 0 -- -- 86
2019-07-31 03:00:00 20.3 8 Sudeste 25 Sudeste 0 -- -- 84
2019-07-31 02:00:00 21 8 Este 27 Sudeste 0 -- -- 77
2019-07-31 01:00:00 21.5 6 Este 21 Sudeste 0 -- -- 65
2019-07-31 00:00:00 22.5 4 Sudeste 13 Sudeste 0 -- -- 60
2019-07-30 23:00:00 23.9 3 Sudeste 15 Sudeste 0 -- -- 57
2019-07-30 22:00:00 25.1 5 Este 14 Este 0 -- -- 48
2019-07-30 21:00:00 27.6 5 Norte 15 Norte 0 -- -- 28
2019-07-30 20:00:00 29.8 8 Norte 21 Norte 0 -- -- 25
2019-07-30 19:00:00 31.3 10 Norte 20 Norte 0 -- -- 24
2019-07-30 18:00:00 31.7 7 Noroeste 24 Norte 0 -- -- 24
2019-07-30 17:00:00 31.6 8 Noroeste 20 Norte 0 -- -- 24
2019-07-30 16:00:00 31.4 8 Norte 25 Norte 0 -- -- 24
2019-07-30 15:00:00 30.1 6 Nordeste 20 Oeste 0 -- -- 26
2019-07-30 14:00:00 29.6 8 Oeste 21 Norte 0 -- -- 27
2019-07-30 13:00:00 28.5 11 Noroeste 18 Noroeste 0 -- -- 28
2019-07-30 12:00:00 26.8 7 Norte 18 Norte 0 -- -- 29
2019-07-30 11:00:00 25.1 5 Norte 13 Noroeste 0 -- -- 31
2019-07-30 10:00:00 23.1 3 Oeste 7 Oeste 0 -- -- 34
2019-07-30 09:00:00 17.3 3 Sudoeste 8 Sur 0 -- -- 50
2019-07-30 08:00:00 10.7 4 Sur 6 Sur 0 -- -- 68
2019-07-30 07:00:00 10.7 3 Sur 6 Sur 0 -- -- 65
2019-07-30 06:00:00 11.8 4 Sur 7 Sur 0 -- -- 62
2019-07-30 05:00:00 12.8 3 Sur 9 Noroeste 0 -- -- 58
2019-07-30 04:00:00 13.9 2 Sur 5 Sur 0 -- -- 57
2019-07-30 03:00:00 15.4 3 Sur 5 Oeste 0 -- -- 52
2019-07-30 02:00:00 18.6 3 Oeste 10 Oeste 0 -- -- 45
2019-07-30 01:00:00 21.7 2 Oeste 17 Oeste 0 -- -- 34
2019-07-30 00:00:00 22.9 7 Oeste 18 Oeste 0 -- -- 30
2019-07-29 23:00:00 22.3 6 Sudoeste 15 Oeste 0 -- -- 27
2019-07-29 22:00:00 24.7 0 Calma 16 Noroeste 0 -- -- 25
2019-07-29 21:00:00 27.8 7 Noroeste 27 Noroeste 0 -- -- 20
2019-07-29 20:00:00 30.1 13 Noroeste 24 Noroeste 0 -- -- 20
2019-07-29 19:00:00 32 8 Oeste 26 Sudoeste 0 -- -- 25
2019-07-29 18:00:00 32.5 6 Sudoeste 27 Noroeste 0 -- -- 26
2019-07-29 17:00:00 32.4 12 Oeste 33 Sudoeste 0 -- -- 26
2019-07-29 16:00:00 31.9 8 Oeste 24 Noroeste 0 -- -- 27
2019-07-29 15:00:00 31.5 10 Oeste 22 Noroeste 0 -- -- 28
2019-07-29 14:00:00 30.8 8 Sudoeste 22 Sudoeste 0 -- -- 32
2019-07-29 13:00:00 29.8 5 Oeste 20 Oeste 0 -- -- 32
2019-07-29 12:00:00 28.1 6 Oeste 17 Oeste 0 -- -- 34
2019-07-29 11:00:00 26.7 6 Oeste 22 Sudoeste 0 -- -- 39
2019-07-29 10:00:00 24.2 10 Sudoeste 24 Sudoeste 0 -- -- 50
2019-07-29 09:00:00 21.1 11 Sudoeste 26 Sudoeste 0 -- -- 61
2019-07-29 08:00:00 17.8 6 Sudoeste 17 Sur 0 -- -- 68
2019-07-29 07:00:00 16.9 7 Sur 17 Sudoeste 0 -- -- 66
2019-07-29 06:00:00 16.7 6 Sur 14 Sudoeste 0 -- -- 62
2019-07-29 05:00:00 16.7 6 Sudoeste 12 Sudoeste 0 -- -- 62
2019-07-29 04:00:00 15 6 Sur 11 Sur 0 -- -- 71
2019-07-29 03:00:00 14.7 3 Sur 5 Sur 0 -- -- 71
2019-07-29 02:00:00 14.7 2 Sur 9 Sur 0 -- -- 66
2019-07-29 01:00:00 15.1 5 Sur 11 Sur 0 -- -- 62
2019-07-29 00:00:00 16.2 5 Sur 9 Sur 0 -- -- 59
2019-07-28 23:00:00 18.3 3 Sur 5 Sur 0 -- -- 52
2019-07-28 22:00:00 21.9 0 Calma 9 Norte 0 -- -- 43
2019-07-28 21:00:00 25.2 6 Norte 16 Noroeste 0 -- -- 36
2019-07-28 20:00:00 27 8 Norte 17 Noroeste 0 -- -- 33
2019-07-28 19:00:00 28.1 10 Norte 24 Noroeste 0 -- -- 31
2019-07-28 18:00:00 28 12 Norte 24 Noroeste 0 -- -- 31
2019-07-28 17:00:00 28.4 10 Noroeste 22 Norte 0 -- -- 31
2019-07-28 16:00:00 27.8 9 Norte 21 Norte 0 -- -- 32
2019-07-28 15:00:00 27.2 6 Norte 24 Norte 0 -- -- 34
2019-07-28 14:00:00 26 7 Norte 16 Noroeste 0 -- -- 37
2019-07-28 13:00:00 24.6 8 Norte 18 Norte 0 -- -- 40
2019-07-28 12:00:00 23.6 6 Noroeste 13 Oeste 0 -- -- 44
2019-07-28 11:00:00 21.5 4 Norte 9 Nordeste 0 -- -- 50
2019-07-28 10:00:00 20.1 3 Norte 12 Norte 0 -- -- 64
2019-07-28 09:00:00 17.5 4 Oeste 9 Oeste 0 -- -- 80
2019-07-28 08:00:00 11.9 4 Sur 6 Sur 0 -- -- 90
2019-07-28 07:00:00 12.1 3 Sur 9 Sudoeste 0 -- -- 88
2019-07-28 06:00:00 12.6 4 Sur 8 Sur 0 -- -- 84
2019-07-28 05:00:00 13.9 3 Sur 8 Sur 0 -- -- 80
2019-07-28 04:00:00 15.2 5 Sur 10 Oeste 0 -- -- 77
2019-07-28 03:00:00 15.9 4 Sur 10 Sudoeste 0 -- -- 73
2019-07-28 02:00:00 16.5 5 Sudoeste 15 Sudoeste 0 -- -- 71
2019-07-28 01:00:00 17.8 5 Sudoeste 15 Oeste 0 -- -- 66
2019-07-28 00:00:00 -- -- -- -- -- -- -- -- --
2019-07-27 23:00:00 -- -- -- -- -- -- -- -- --
2019-07-26 12:00:00 -- -- -- -- -- -- -- -- --
2019-07-26 11:00:00 -- -- -- -- -- -- -- -- --
2019-07-26 10:00:00 -- -- -- -- -- -- -- -- --
2019-07-26 09:00:00 -- -- -- -- -- -- -- -- --
2019-07-26 08:00:00 -- -- -- -- -- -- -- -- --
2019-07-26 07:00:00 -- -- -- -- -- -- -- -- --
2019-07-26 06:00:00 21.2 10 Sudoeste 24 Sudoeste 0 -- -- 46
2019-07-26 05:00:00 21.5 10 Sudoeste 23 Sur 0 -- -- 48
2019-07-26 04:00:00 22.2 9 Sudoeste 25 Sudoeste 0 -- -- 46
2019-07-26 03:00:00 23.5 9 Sudoeste 21 Sudoeste 0 -- -- 40
2019-07-26 02:00:00 25.1 9 Sudoeste 20 Sudoeste 0 -- -- 31
2019-07-26 01:00:00 25.5 9 Sudoeste 20 Sudoeste 0 -- -- 31
2019-07-26 00:00:00 24.1 4 Sur 14 Sur 0 -- -- 39